createdAt,value
2022-11-12T00:17:55.900Z,3.63
2022-11-12T00:22:08.414Z,4.72
2022-11-12T00:26:18.271Z,4.15
2022-11-12T00:49:26.030Z,3.45
2022-11-12T00:52:46.494Z,3.65
2022-11-12T00:56:07.769Z,3.75
2022-11-12T00:59:28.127Z,3.90
2022-11-12T01:02:51.262Z,3.38
2022-11-12T01:06:15.370Z,4.10
2022-11-12T01:09:35.644Z,4.03
2022-11-12T01:12:56.006Z,3.45
2022-11-12T01:16:22.677Z,3.63
2022-11-12T01:19:42.842Z,3.83
2022-11-12T01:23:03.099Z,3.67
2022-11-12T01:26:24.388Z,3.70
2022-11-12T01:29:46.804Z,3.38
2022-11-12T01:33:07.036Z,3.47
2022-11-12T01:36:28.765Z,3.35
2022-11-12T01:39:48.856Z,3.20
2022-11-12T01:43:13.651Z,3.10
2022-11-12T01:46:37.287Z,3.33
2022-11-12T01:50:26.097Z,3.25
2022-11-12T01:53:49.799Z,3.20
2022-11-12T01:57:12.942Z,3.60
2022-11-12T02:00:32.869Z,3.50
2022-11-12T02:03:53.738Z,3.47
2022-11-12T02:07:14.469Z,3.13
2022-11-12T02:10:35.491Z,3.22
2022-11-12T02:13:58.797Z,3.33
2022-11-12T03:40:54.973Z,2.97
2022-11-12T04:33:50.001Z,2.88
2022-11-12T05:32:48.780Z,2.60
2022-11-12T05:42:12.352Z,2.85
2022-11-12T06:09:01.842Z,2.88
2022-11-12T06:13:50.004Z,3.00
2022-11-12T06:29:50.951Z,2.58
2022-11-12T06:31:30.734Z,3.20
2022-11-12T07:13:37.336Z,3.67
2022-11-12T07:16:57.793Z,2.75
2022-11-12T07:20:18.256Z,2.78
2022-11-12T07:23:38.405Z,2.80
2022-11-12T07:26:58.983Z,2.67
2022-11-12T07:30:19.121Z,3.00
2022-11-12T07:33:39.714Z,2.65
2022-11-12T07:36:59.625Z,2.63
2022-11-12T07:40:20.038Z,2.63
2022-11-12T07:43:41.498Z,2.65
2022-11-12T07:47:01.837Z,3.05
2022-11-12T07:50:22.150Z,2.92
2022-11-12T07:53:43.979Z,3.05
2022-11-12T07:57:04.105Z,2.50
2022-11-12T08:00:27.091Z,2.60
2022-11-12T08:03:47.912Z,2.53
2022-11-12T08:07:08.176Z,2.67
2022-11-12T08:10:28.497Z,3.10
2022-11-12T08:13:52.507Z,2.63
2022-11-12T08:17:12.865Z,2.83
2022-11-12T08:20:33.099Z,3.42
2022-11-12T08:23:53.409Z,3.08
2022-11-12T08:27:14.649Z,3.17
2022-11-12T08:30:35.503Z,3.08
2022-11-12T08:33:55.636Z,4.35
2022-11-12T08:37:16.000Z,3.53
2022-11-12T08:40:36.921Z,3.53
2022-11-12T08:43:58.163Z,3.22
2022-11-12T08:47:21.808Z,3.72
2022-11-12T08:50:43.550Z,3.53
2022-11-12T08:54:03.961Z,3.53
2022-11-12T08:57:24.100Z,3.63
2022-11-12T09:00:44.708Z,3.88
2022-11-12T09:04:04.991Z,2.97
2022-11-12T09:11:05.956Z,3.17
2022-11-12T09:14:26.354Z,3.33
2022-11-12T09:17:47.260Z,3.58
2022-11-12T09:21:11.260Z,3.65
2022-11-12T09:24:31.355Z,4.45
2022-11-12T09:27:51.606Z,4.32
2022-11-12T09:31:12.012Z,5.20
2022-11-12T09:34:32.411Z,6.28
2022-11-12T09:37:53.066Z,5.22
2022-11-12T09:41:20.264Z,5.20
2022-11-12T09:48:08.553Z,3.60
2022-11-12T09:51:34.253Z,4.33
2022-11-12T09:55:11.704Z,3.65
2022-11-12T09:58:31.791Z,4.70
2022-11-12T10:02:23.461Z,5.25
2022-11-12T10:06:19.108Z,3.90
2022-11-12T10:09:50.929Z,4.20
2022-11-12T10:13:24.621Z,4.15
2022-11-12T10:17:07.898Z,3.95
2022-11-12T10:20:56.266Z,3.75
2022-11-12T10:24:16.696Z,4.05
2022-11-12T10:27:41.604Z,4.53
2022-11-12T10:31:11.547Z,5.13
2022-11-12T10:34:31.676Z,4.55
2022-11-12T10:37:51.929Z,4.80
2022-11-12T10:41:38.397Z,5.00
2022-11-12T10:45:19.992Z,5.43
2022-11-12T11:01:01.575Z,4.95
2022-11-12T11:15:48.234Z,5.45
2022-11-12T11:20:16.673Z,6.00
2022-11-12T11:29:55.622Z,6.03
2022-11-12T11:39:19.897Z,5.68
2022-11-12T11:43:14.190Z,6.70
2022-11-12T11:47:17.272Z,5.80
2022-11-12T11:50:52.502Z,6.22
2022-11-12T11:54:50.230Z,7.18
2022-11-12T11:58:25.738Z,7.05
2022-11-12T12:02:00.771Z,6.40
2022-11-12T12:05:40.604Z,5.75
2022-11-12T12:09:13.908Z,7.05
2022-11-12T12:13:00.902Z,6.72
2022-11-12T12:16:27.780Z,7.20
2022-11-12T12:20:19.915Z,6.85
2022-11-12T12:24:05.536Z,6.63
2022-11-12T12:27:36.724Z,6.72
2022-11-12T12:31:04.936Z,7.32
2022-11-12T12:34:33.239Z,7.88
2022-11-12T12:38:06.523Z,9.10
2022-11-12T12:41:37.208Z,9.75
2022-11-12T12:45:18.791Z,10.32
2022-11-12T12:48:42.710Z,10.25
2022-11-12T12:52:02.985Z,10.73
2022-11-12T12:55:42.320Z,10.18
2022-11-12T12:59:06.332Z,10.82
2022-11-12T13:02:37.413Z,10.15
2022-11-12T13:06:13.929Z,10.35
2022-11-12T13:09:33.866Z,9.82
2022-11-12T13:13:03.252Z,10.35
2022-11-12T13:16:49.549Z,9.18
2022-11-12T13:20:09.572Z,9.57
2022-11-12T13:24:08.273Z,10.93
2022-11-12T13:27:43.664Z,9.32
2022-11-12T13:31:24.660Z,8.82
2022-11-12T13:34:44.969Z,9.35
2022-11-12T13:38:08.307Z,9.63
2022-11-12T13:41:47.075Z,8.23
2022-11-12T13:45:10.706Z,7.60
2022-11-12T13:48:36.943Z,8.48
2022-11-12T13:51:57.974Z,8.25
2022-11-12T13:55:20.636Z,7.78
2022-11-12T13:58:40.930Z,7.00
2022-11-12T14:02:05.418Z,7.90
2022-11-12T14:05:31.977Z,7.57
2022-11-12T14:09:40.431Z,7.80
2022-11-12T14:13:18.823Z,8.15
2022-11-12T14:16:51.556Z,8.38
2022-11-12T14:20:37.166Z,7.78
2022-11-12T14:23:57.560Z,9.98
2022-11-12T14:27:36.256Z,9.25
2022-11-12T14:30:57.951Z,8.00
2022-11-12T14:34:27.199Z,10.77
2022-11-12T14:37:55.878Z,8.85
2022-11-12T14:41:18.816Z,8.57
2022-11-12T14:44:39.307Z,9.15
2022-11-12T14:47:59.635Z,8.07
2022-11-12T14:51:20.764Z,8.40
2022-11-12T14:54:50.660Z,7.85
2022-11-12T14:58:18.897Z,8.18
2022-11-12T15:05:23.497Z,8.02
2022-11-12T15:08:43.893Z,7.45
2022-11-12T15:12:09.021Z,8.35
2022-11-12T15:15:29.753Z,7.53
2022-11-12T15:19:23.905Z,7.93
2022-11-12T15:22:54.184Z,8.50
2022-11-12T15:26:30.894Z,10.07
2022-11-12T15:30:07.680Z,9.00
2022-11-12T15:33:29.212Z,9.32
2022-11-12T15:36:51.333Z,8.80
2022-11-12T15:40:18.572Z,8.82
2022-11-12T15:43:42.927Z,9.55
2022-11-12T15:47:04.004Z,9.43
2022-11-12T15:50:25.082Z,9.90
2022-11-12T15:53:45.306Z,8.90
2022-11-12T15:57:05.308Z,7.97
2022-11-12T16:00:38.260Z,8.55
2022-11-12T16:03:58.646Z,8.82
2022-11-12T16:07:18.883Z,9.65
2022-11-12T16:10:41.529Z,10.40
2022-11-12T16:14:03.981Z,11.07
2022-11-12T16:17:24.246Z,10.98
2022-11-12T16:20:44.780Z,11.13
2022-11-12T16:24:05.435Z,13.05
2022-11-12T16:27:25.421Z,10.27
2022-11-12T16:30:46.789Z,9.52
2022-11-12T16:34:07.772Z,10.45
2022-11-12T16:37:28.918Z,9.32
2022-11-12T16:40:49.412Z,8.18
2022-11-12T16:44:11.389Z,10.13
2022-11-12T16:47:32.268Z,9.15
2022-11-12T16:50:54.138Z,9.52
2022-11-12T16:54:20.792Z,7.90
2022-11-12T16:57:41.992Z,10.00
2022-11-12T17:01:03.409Z,9.63
2022-11-12T17:04:25.268Z,8.10
2022-11-12T17:07:45.604Z,9.27
2022-11-12T17:11:09.375Z,9.20
2022-11-12T17:14:29.672Z,8.57
2022-11-12T17:17:55.818Z,9.15
2022-11-12T17:21:18.175Z,10.00
2022-11-12T17:24:38.490Z,9.02
2022-11-12T17:27:58.848Z,8.02
2022-11-12T17:31:21.593Z,8.23
2022-11-12T17:34:41.594Z,9.27
2022-11-12T17:38:01.850Z,8.60
2022-11-12T17:41:22.432Z,7.93
2022-11-12T17:44:42.475Z,7.75
2022-11-12T17:48:02.987Z,7.70
2022-11-12T17:51:25.587Z,8.10
2022-11-12T17:54:45.670Z,7.72
2022-11-12T17:58:06.387Z,7.93
2022-11-12T18:01:28.128Z,7.57
2022-11-12T18:04:48.227Z,8.00
2022-11-12T18:08:08.627Z,9.70
2022-11-12T18:11:30.860Z,9.43
2022-11-12T18:14:52.021Z,8.93
2022-11-12T18:18:12.555Z,10.38
2022-11-12T18:21:32.664Z,7.97
2022-11-12T18:24:53.887Z,8.60
2022-11-12T18:28:16.230Z,8.15
2022-11-12T18:31:36.739Z,9.80
2022-11-12T18:34:57.077Z,8.48
2022-11-12T18:38:17.480Z,7.60
2022-11-12T18:41:37.852Z,8.63
2022-11-12T18:44:58.078Z,7.93
2022-11-12T18:48:18.415Z,7.28
2022-11-12T18:51:39.734Z,7.80
2022-11-12T18:54:59.937Z,6.68
2022-11-12T18:58:20.656Z,7.30
2022-11-12T19:01:40.800Z,7.20
2022-11-12T19:05:01.169Z,7.68
2022-11-12T19:08:21.618Z,7.40
2022-11-12T19:11:42.931Z,8.70
2022-11-12T19:15:04.043Z,6.75
2022-11-12T19:18:24.146Z,7.10
2022-11-12T19:21:44.377Z,9.18
2022-11-12T19:25:05.645Z,7.78
2022-11-12T19:28:28.505Z,7.05
2022-11-12T19:31:52.402Z,6.75
2022-11-12T19:35:12.712Z,5.47
2022-11-12T19:38:33.280Z,5.85
2022-11-12T19:41:53.335Z,4.78
2022-11-12T19:45:13.640Z,6.18
2022-11-12T19:48:34.327Z,12.05
2022-11-12T19:51:54.412Z,7.40
2022-11-12T19:55:14.725Z,6.80
2022-11-12T19:58:35.139Z,7.25
2022-11-12T20:01:55.179Z,5.85
2022-11-12T20:05:16.992Z,5.97
2022-11-12T20:08:42.917Z,7.18
2022-11-12T20:12:07.792Z,5.80
2022-11-12T20:15:31.059Z,6.85
2022-11-12T20:18:55.680Z,6.45
2022-11-12T20:22:16.345Z,6.00
2022-11-12T20:25:38.417Z,6.38
2022-11-12T20:29:00.712Z,7.05
2022-11-12T20:32:24.153Z,5.85
2022-11-12T20:35:45.550Z,5.45
2022-11-12T20:39:06.197Z,4.97
2022-11-12T20:42:26.483Z,5.10
2022-11-12T20:45:52.046Z,5.32
2022-11-12T20:49:13.218Z,6.72
2022-11-12T20:52:38.891Z,5.85
2022-11-12T20:56:17.804Z,7.25
2022-11-12T20:59:41.256Z,5.13
2022-11-12T21:03:01.401Z,5.60
2022-11-12T21:06:24.106Z,5.47
2022-11-12T21:09:44.886Z,4.55
2022-11-12T21:13:04.891Z,5.00
2022-11-12T21:16:25.682Z,4.18
2022-11-12T21:19:46.799Z,4.60
2022-11-12T21:23:07.511Z,4.75
2022-11-12T21:26:27.608Z,5.03
2022-11-12T21:29:48.011Z,4.43
2022-11-12T21:33:10.283Z,3.90
2022-11-12T21:36:32.452Z,3.67
2022-11-12T21:39:52.925Z,3.92
2022-11-12T21:43:13.359Z,4.53
2022-11-12T21:46:35.880Z,3.75
2022-11-12T21:49:56.501Z,3.53
2022-11-12T21:53:19.946Z,3.70
2022-11-12T21:56:40.553Z,3.75
2022-11-12T22:00:26.770Z,3.78
2022-11-12T22:03:45.440Z,3.65
2022-11-12T22:07:12.141Z,4.25
2022-11-12T22:10:33.046Z,4.30
2022-11-12T22:13:53.750Z,4.55
2022-11-12T22:17:13.871Z,4.30
2022-11-12T22:20:34.860Z,4.22
2022-11-12T22:23:56.218Z,4.47
2022-11-12T22:27:16.895Z,4.55
2022-11-12T22:30:37.379Z,4.35
2022-11-12T22:33:59.750Z,3.75
2022-11-12T22:37:20.018Z,4.32
2022-11-12T22:40:40.419Z,4.07
2022-11-12T22:44:08.972Z,4.93
2022-11-12T22:47:29.771Z,4.28
2022-11-12T22:50:50.445Z,4.80
2022-11-12T22:54:13.335Z,3.70
2022-11-12T22:57:33.480Z,4.30
2022-11-12T23:00:53.937Z,4.30
2022-11-12T23:04:14.925Z,4.13
2022-11-12T23:07:36.000Z,4.20
2022-11-12T23:10:56.783Z,4.32
2022-11-12T23:14:19.305Z,4.35
2022-11-12T23:17:40.851Z,4.40
2022-11-12T23:21:08.352Z,4.03
2022-11-12T23:24:28.654Z,3.97
2022-11-12T23:35:40.271Z,3.95
2022-11-12T23:39:01.274Z,4.15
2022-11-12T23:42:29.600Z,4.22
2022-11-12T23:46:46.245Z,4.28
2022-11-12T23:51:26.005Z,4.28
2022-11-12T23:54:20.037Z,4.10
2022-11-12T23:57:43.696Z,4.57
